sensor_id;sensor_type;location;lat;lon;timestamp;P1;durP1;ratioP1;P2;durP2;ratioP2
2099;SDS011;1055;48.854;9.302;2023-08-21T00:02:24;15.50;;;13.53;;
2099;SDS011;1055;48.854;9.302;2023-08-21T00:04:52;16.63;;;12.83;;
2099;SDS011;1055;48.854;9.302;2023-08-21T00:07:18;13.37;;;11.97;;
2099;SDS011;1055;48.854;9.302;2023-08-21T00:09:44;14.50;;;12.30;;
2099;SDS011;1055;48.854;9.302;2023-08-21T00:12:11;12.77;;;11.47;;
2099;SDS011;1055;48.854;9.302;2023-08-21T00:14:39;13.70;;;11.77;;
2099;SDS011;1055;48.854;9.302;2023-08-21T00:17:04;16.50;;;11.97;;
2099;SDS011;1055;48.854;9.302;2023-08-21T00:19:32;12.40;;;11.20;;
2099;SDS011;1055;48.854;9.302;2023-08-21T00:21:59;11.93;;;10.43;;
2099;SDS011;1055;48.854;9.302;2023-08-21T00:24:24;12.67;;;10.97;;
2099;SDS011;1055;48.854;9.302;2023-08-21T00:26:50;14.93;;;11.00;;
2099;SDS011;1055;48.854;9.302;2023-08-21T00:29:16;17.10;;;12.60;;
2099;SDS011;1055;48.854;9.302;2023-08-21T00:31:41;14.77;;;12.47;;
2099;SDS011;1055;48.854;9.302;2023-08-21T00:34:11;13.40;;;11.77;;
2099;SDS011;1055;48.854;9.302;2023-08-21T00:36:37;14.97;;;12.50;;
2099;SDS011;1055;48.854;9.302;2023-08-21T00:39:03;14.30;;;11.20;;
2099;SDS011;1055;48.854;9.302;2023-08-21T00:41:28;13.70;;;12.00;;
2099;SDS011;1055;48.854;9.302;2023-08-21T00:43:54;13.13;;;11.33;;
2099;SDS011;1055;48.854;9.302;2023-08-21T00:46:19;15.27;;;12.17;;
2099;SDS011;1055;48.854;9.302;2023-08-21T00:48:45;16.03;;;11.40;;
2099;SDS011;1055;48.854;9.302;2023-08-21T00:51:11;14.17;;;12.40;;
2099;SDS011;1055;48.854;9.302;2023-08-21T00:53:40;15.50;;;11.80;;
2099;SDS011;1055;48.854;9.302;2023-08-21T00:56:05;18.27;;;11.97;;
2099;SDS011;1055;48.854;9.302;2023-08-21T00:58:32;11.93;;;10.70;;
2099;SDS011;1055;48.854;9.302;2023-08-21T01:00:59;15.60;;;11.83;;
2099;SDS011;1055;48.854;9.302;2023-08-21T01:03:25;14.50;;;10.93;;
2099;SDS011;1055;48.854;9.302;2023-08-21T01:05:54;14.43;;;12.33;;
2099;SDS011;1055;48.854;9.302;2023-08-21T01:11:25;14.73;;;12.10;;
2099;SDS011;1055;48.854;9.302;2023-08-21T01:16:56;16.43;;;13.47;;
2099;SDS011;1055;48.854;9.302;2023-08-21T01:19:26;15.73;;;14.00;;
2099;SDS011;1055;48.854;9.302;2023-08-21T01:21:59;15.00;;;13.40;;
2099;SDS011;1055;48.854;9.302;2023-08-21T01:24:25;13.33;;;11.93;;
2099;SDS011;1055;48.854;9.302;2023-08-21T01:26:52;13.87;;;12.47;;
2099;SDS011;1055;48.854;9.302;2023-08-21T01:29:18;15.47;;;13.80;;
2099;SDS011;1055;48.854;9.302;2023-08-21T01:31:44;28.07;;;13.83;;
2099;SDS011;1055;48.854;9.302;2023-08-21T01:34:17;16.80;;;15.00;;
2099;SDS011;1055;48.854;9.302;2023-08-21T01:36:44;16.87;;;14.30;;
2099;SDS011;1055;48.854;9.302;2023-08-21T01:39:11;16.23;;;13.90;;
2099;SDS011;1055;48.854;9.302;2023-08-21T01:41:37;19.30;;;13.43;;
2099;SDS011;1055;48.854;9.302;2023-08-21T01:44:04;14.37;;;12.87;;
2099;SDS011;1055;48.854;9.302;2023-08-21T01:46:30;16.77;;;13.50;;
2099;SDS011;1055;48.854;9.302;2023-08-21T01:48:55;16.10;;;13.80;;
2099;SDS011;1055;48.854;9.302;2023-08-21T01:51:22;16.40;;;14.03;;
2099;SDS011;1055;48.854;9.302;2023-08-21T01:53:47;15.57;;;13.80;;
2099;SDS011;1055;48.854;9.302;2023-08-21T01:56:13;14.93;;;12.80;;
2099;SDS011;1055;48.854;9.302;2023-08-21T01:58:38;15.77;;;14.13;;
2099;SDS011;1055;48.854;9.302;2023-08-21T02:01:04;15.30;;;13.47;;
2099;SDS011;1055;48.854;9.302;2023-08-21T02:03:31;21.07;;;13.87;;
2099;SDS011;1055;48.854;9.302;2023-08-21T02:05:56;16.77;;;13.27;;
2099;SDS011;1055;48.854;9.302;2023-08-21T02:08:27;19.20;;;14.23;;
2099;SDS011;1055;48.854;9.302;2023-08-21T02:10:56;16.80;;;15.00;;
2099;SDS011;1055;48.854;9.302;2023-08-21T02:13:22;15.63;;;12.37;;
2099;SDS011;1055;48.854;9.302;2023-08-21T02:15:47;17.33;;;14.70;;
2099;SDS011;1055;48.854;9.302;2023-08-21T02:18:13;15.67;;;13.73;;
2099;SDS011;1055;48.854;9.302;2023-08-21T02:24:03;16.83;;;14.80;;
2099;SDS011;1055;48.854;9.302;2023-08-21T02:26:30;17.83;;;14.23;;
2099;SDS011;1055;48.854;9.302;2023-08-21T02:28:57;16.57;;;14.20;;
2099;SDS011;1055;48.854;9.302;2023-08-21T02:31:23;16.23;;;14.37;;
2099;SDS011;1055;48.854;9.302;2023-08-21T02:33:48;19.40;;;14.63;;
2099;SDS011;1055;48.854;9.302;2023-08-21T02:36:15;17.43;;;14.60;;
2099;SDS011;1055;48.854;9.302;2023-08-21T02:38:41;17.63;;;15.07;;
2099;SDS011;1055;48.854;9.302;2023-08-21T02:41:06;18.23;;;16.30;;
2099;SDS011;1055;48.854;9.302;2023-08-21T02:43:33;17.00;;;15.20;;
2099;SDS011;1055;48.854;9.302;2023-08-21T02:46:00;16.40;;;14.80;;
2099;SDS011;1055;48.854;9.302;2023-08-21T02:48:26;17.23;;;15.43;;
2099;SDS011;1055;48.854;9.302;2023-08-21T02:50:52;15.87;;;14.17;;
2099;SDS011;1055;48.854;9.302;2023-08-21T02:53:18;15.20;;;13.60;;
2099;SDS011;1055;48.854;9.302;2023-08-21T02:55:44;16.43;;;14.60;;
2099;SDS011;1055;48.854;9.302;2023-08-21T02:58:11;16.23;;;13.53;;
2099;SDS011;1055;48.854;9.302;2023-08-21T03:00:37;16.00;;;14.10;;
2099;SDS011;1055;48.854;9.302;2023-08-21T03:03:03;16.30;;;14.60;;
2099;SDS011;1055;48.854;9.302;2023-08-21T03:05:29;15.97;;;14.27;;
2099;SDS011;1055;48.854;9.302;2023-08-21T03:07:57;17.90;;;13.43;;
2099;SDS011;1055;48.854;9.302;2023-08-21T03:10:24;18.80;;;13.97;;
2099;SDS011;1055;48.854;9.302;2023-08-21T03:12:54;14.50;;;13.00;;
2099;SDS011;1055;48.854;9.302;2023-08-21T03:15:20;17.70;;;13.77;;
2099;SDS011;1055;48.854;9.302;2023-08-21T03:17:46;16.57;;;13.30;;
2099;SDS011;1055;48.854;9.302;2023-08-21T03:20:11;15.10;;;13.50;;
2099;SDS011;1055;48.854;9.302;2023-08-21T03:22:37;18.77;;;14.00;;
2099;SDS011;1055;48.854;9.302;2023-08-21T03:25:03;18.70;;;14.00;;
2099;SDS011;1055;48.854;9.302;2023-08-21T03:27:29;19.13;;;14.30;;
2099;SDS011;1055;48.854;9.302;2023-08-21T03:29:55;17.50;;;14.30;;
2099;SDS011;1055;48.854;9.302;2023-08-21T03:32:20;17.90;;;14.70;;
2099;SDS011;1055;48.854;9.302;2023-08-21T03:34:46;21.83;;;14.93;;
2099;SDS011;1055;48.854;9.302;2023-08-21T03:37:11;18.80;;;14.60;;
2099;SDS011;1055;48.854;9.302;2023-08-21T03:39:37;17.43;;;14.90;;
2099;SDS011;1055;48.854;9.302;2023-08-21T03:42:04;17.20;;;15.43;;
2099;SDS011;1055;48.854;9.302;2023-08-21T03:44:30;17.47;;;15.57;;
2099;SDS011;1055;48.854;9.302;2023-08-21T03:46:57;18.40;;;16.30;;
2099;SDS011;1055;48.854;9.302;2023-08-21T03:49:22;22.30;;;15.87;;
2099;SDS011;1055;48.854;9.302;2023-08-21T03:51:48;16.37;;;14.67;;
2099;SDS011;1055;48.854;9.302;2023-08-21T03:54:13;18.53;;;14.90;;
2099;SDS011;1055;48.854;9.302;2023-08-21T03:56:39;71.90;;;40.37;;
2099;SDS011;1055;48.854;9.302;2023-08-21T03:59:05;91.30;;;62.40;;
2099;SDS011;1055;48.854;9.302;2023-08-21T04:01:30;98.13;;;64.83;;
2099;SDS011;1055;48.854;9.302;2023-08-21T04:03:56;43.43;;;29.33;;
2099;SDS011;1055;48.854;9.302;2023-08-21T04:06:23;17.50;;;15.27;;
2099;SDS011;1055;48.854;9.302;2023-08-21T04:08:49;45.10;;;24.67;;
2099;SDS011;1055;48.854;9.302;2023-08-21T04:11:15;16.00;;;14.40;;
2099;SDS011;1055;48.854;9.302;2023-08-21T04:13:41;22.00;;;16.00;;
2099;SDS011;1055;48.854;9.302;2023-08-21T04:16:06;19.53;;;16.90;;
2099;SDS011;1055;48.854;9.302;2023-08-21T04:18:33;19.77;;;15.57;;
2099;SDS011;1055;48.854;9.302;2023-08-21T04:21:01;21.03;;;16.27;;
2099;SDS011;1055;48.854;9.302;2023-08-21T04:23:27;20.23;;;16.30;;
2099;SDS011;1055;48.854;9.302;2023-08-21T04:25:59;16.93;;;15.13;;
2099;SDS011;1055;48.854;9.302;2023-08-21T04:28:26;18.67;;;15.63;;
2099;SDS011;1055;48.854;9.302;2023-08-21T04:30:52;16.80;;;15.07;;
2099;SDS011;1055;48.854;9.302;2023-08-21T04:33:17;18.60;;;14.60;;
2099;SDS011;1055;48.854;9.302;2023-08-21T04:35:44;17.67;;;15.07;;
2099;SDS011;1055;48.854;9.302;2023-08-21T04:38:10;16.97;;;14.80;;
2099;SDS011;1055;48.854;9.302;2023-08-21T04:40:35;18.07;;;16.07;;
2099;SDS011;1055;48.854;9.302;2023-08-21T04:43:01;17.13;;;15.00;;
2099;SDS011;1055;48.854;9.302;2023-08-21T04:45:26;19.83;;;15.57;;
2099;SDS011;1055;48.854;9.302;2023-08-21T04:47:52;18.03;;;16.20;;
2099;SDS011;1055;48.854;9.302;2023-08-21T04:50:18;18.80;;;15.63;;
2099;SDS011;1055;48.854;9.302;2023-08-21T04:52:45;18.87;;;16.40;;
2099;SDS011;1055;48.854;9.302;2023-08-21T04:55:11;19.63;;;17.53;;
2099;SDS011;1055;48.854;9.302;2023-08-21T04:57:37;18.23;;;16.43;;
2099;SDS011;1055;48.854;9.302;2023-08-21T05:00:02;20.10;;;18.00;;
2099;SDS011;1055;48.854;9.302;2023-08-21T05:02:29;20.73;;;17.80;;
2099;SDS011;1055;48.854;9.302;2023-08-21T05:04:54;21.57;;;16.93;;
2099;SDS011;1055;48.854;9.302;2023-08-21T05:07:20;19.33;;;16.20;;
2099;SDS011;1055;48.854;9.302;2023-08-21T05:09:45;19.60;;;16.33;;
2099;SDS011;1055;48.854;9.302;2023-08-21T05:12:11;20.73;;;18.53;;
2099;SDS011;1055;48.854;9.302;2023-08-21T05:14:37;21.27;;;18.53;;
2099;SDS011;1055;48.854;9.302;2023-08-21T05:17:03;20.63;;;17.97;;
2099;SDS011;1055;48.854;9.302;2023-08-21T05:19:29;20.10;;;17.80;;
2099;SDS011;1055;48.854;9.302;2023-08-21T05:21:58;19.63;;;17.30;;
2099;SDS011;1055;48.854;9.302;2023-08-21T05:24:24;20.20;;;18.10;;
2099;SDS011;1055;48.854;9.302;2023-08-21T05:26:50;19.60;;;17.50;;
2099;SDS011;1055;48.854;9.302;2023-08-21T05:29:15;20.83;;;18.47;;
2099;SDS011;1055;48.854;9.302;2023-08-21T05:31:41;33.93;;;21.90;;
2099;SDS011;1055;48.854;9.302;2023-08-21T05:34:07;20.50;;;17.70;;
2099;SDS011;1055;48.854;9.302;2023-08-21T05:36:33;19.47;;;17.20;;
2099;SDS011;1055;48.854;9.302;2023-08-21T05:38:58;22.10;;;18.00;;
2099;SDS011;1055;48.854;9.302;2023-08-21T05:41:26;25.03;;;17.30;;
2099;SDS011;1055;48.854;9.302;2023-08-21T05:43:52;19.60;;;17.13;;
2099;SDS011;1055;48.854;9.302;2023-08-21T05:46:17;18.90;;;16.83;;
2099;SDS011;1055;48.854;9.302;2023-08-21T05:48:43;19.20;;;16.80;;
2099;SDS011;1055;48.854;9.302;2023-08-21T05:51:09;20.50;;;17.30;;
2099;SDS011;1055;48.854;9.302;2023-08-21T05:53:34;16.60;;;14.90;;
2099;SDS011;1055;48.854;9.302;2023-08-21T05:56:00;18.50;;;15.00;;
2099;SDS011;1055;48.854;9.302;2023-08-21T05:58:25;16.80;;;15.07;;
2099;SDS011;1055;48.854;9.302;2023-08-21T06:00:55;19.73;;;14.40;;
2099;SDS011;1055;48.854;9.302;2023-08-21T06:03:21;18.77;;;14.57;;
2099;SDS011;1055;48.854;9.302;2023-08-21T06:05:47;16.37;;;14.67;;
2099;SDS011;1055;48.854;9.302;2023-08-21T06:08:12;19.80;;;17.03;;
2099;SDS011;1055;48.854;9.302;2023-08-21T06:10:38;18.00;;;15.37;;
2099;SDS011;1055;48.854;9.302;2023-08-21T06:13:04;19.93;;;17.63;;
2099;SDS011;1055;48.854;9.302;2023-08-21T06:15:29;20.63;;;17.87;;
2099;SDS011;1055;48.854;9.302;2023-08-21T06:17:55;21.57;;;17.87;;
2099;SDS011;1055;48.854;9.302;2023-08-21T06:20:20;34.60;;;20.30;;
2099;SDS011;1055;48.854;9.302;2023-08-21T06:22:46;21.47;;;18.30;;
2099;SDS011;1055;48.854;9.302;2023-08-21T06:25:12;21.07;;;15.70;;
2099;SDS011;1055;48.854;9.302;2023-08-21T06:27:38;19.23;;;15.63;;
2099;SDS011;1055;48.854;9.302;2023-08-21T06:30:04;19.43;;;16.50;;
2099;SDS011;1055;48.854;9.302;2023-08-21T06:32:30;19.50;;;16.53;;
2099;SDS011;1055;48.854;9.302;2023-08-21T06:34:57;18.83;;;16.10;;
2099;SDS011;1055;48.854;9.302;2023-08-21T06:37:24;21.43;;;16.67;;
2099;SDS011;1055;48.854;9.302;2023-08-21T06:39:50;19.80;;;17.37;;
2099;SDS011;1055;48.854;9.302;2023-08-21T06:42:16;18.77;;;15.90;;
2099;SDS011;1055;48.854;9.302;2023-08-21T06:44:41;21.93;;;17.03;;
2099;SDS011;1055;48.854;9.302;2023-08-21T06:47:07;17.50;;;15.53;;
2099;SDS011;1055;48.854;9.302;2023-08-21T06:49:32;19.73;;;16.10;;
2099;SDS011;1055;48.854;9.302;2023-08-21T06:51:58;19.40;;;16.40;;
2099;SDS011;1055;48.854;9.302;2023-08-21T06:54:24;20.03;;;16.80;;
2099;SDS011;1055;48.854;9.302;2023-08-21T06:56:49;18.50;;;16.50;;
2099;SDS011;1055;48.854;9.302;2023-08-21T06:59:15;18.97;;;15.53;;
2099;SDS011;1055;48.854;9.302;2023-08-21T07:01:41;16.50;;;14.43;;
2099;SDS011;1055;48.854;9.302;2023-08-21T07:04:07;20.37;;;16.27;;
2099;SDS011;1055;48.854;9.302;2023-08-21T07:06:33;19.83;;;16.23;;
2099;SDS011;1055;48.854;9.302;2023-08-21T07:08:59;19.27;;;14.80;;
2099;SDS011;1055;48.854;9.302;2023-08-21T07:11:24;17.23;;;15.30;;
2099;SDS011;1055;48.854;9.302;2023-08-21T07:13:50;17.20;;;14.93;;
2099;SDS011;1055;48.854;9.302;2023-08-21T07:16:16;16.43;;;13.43;;
2099;SDS011;1055;48.854;9.302;2023-08-21T07:18:43;17.60;;;15.70;;
2099;SDS011;1055;48.854;9.302;2023-08-21T07:21:09;16.70;;;14.57;;
2099;SDS011;1055;48.854;9.302;2023-08-21T07:23:35;16.93;;;14.23;;
2099;SDS011;1055;48.854;9.302;2023-08-21T07:26:02;20.10;;;15.33;;
2099;SDS011;1055;48.854;9.302;2023-08-21T07:28:30;16.10;;;14.50;;
2099;SDS011;1055;48.854;9.302;2023-08-21T07:30:59;18.27;;;14.50;;
2099;SDS011;1055;48.854;9.302;2023-08-21T07:33:25;16.80;;;15.10;;
2099;SDS011;1055;48.854;9.302;2023-08-21T07:36:02;14.97;;;13.47;;
2099;SDS011;1055;48.854;9.302;2023-08-21T07:38:30;15.97;;;13.73;;
2099;SDS011;1055;48.854;9.302;2023-08-21T07:41:05;14.20;;;12.70;;
2099;SDS011;1055;48.854;9.302;2023-08-21T07:43:44;15.70;;;13.17;;
2099;SDS011;1055;48.854;9.302;2023-08-21T07:46:10;16.90;;;13.10;;
2099;SDS011;1055;48.854;9.302;2023-08-21T07:48:41;16.30;;;13.57;;
2099;SDS011;1055;48.854;9.302;2023-08-21T07:51:08;22.03;;;12.77;;
2099;SDS011;1055;48.854;9.302;2023-08-21T07:56:55;16.03;;;13.00;;
2099;SDS011;1055;48.854;9.302;2023-08-21T07:59:21;18.07;;;12.83;;
2099;SDS011;1055;48.854;9.302;2023-08-21T08:01:49;16.00;;;12.50;;
2099;SDS011;1055;48.854;9.302;2023-08-21T08:04:15;16.03;;;12.90;;
2099;SDS011;1055;48.854;9.302;2023-08-21T08:06:41;16.20;;;12.50;;
2099;SDS011;1055;48.854;9.302;2023-08-21T08:09:06;18.50;;;12.93;;
2099;SDS011;1055;48.854;9.302;2023-08-21T08:11:32;15.87;;;11.93;;
2099;SDS011;1055;48.854;9.302;2023-08-21T08:13:58;18.93;;;11.43;;
2099;SDS011;1055;48.854;9.302;2023-08-21T08:16:24;13.40;;;11.33;;
2099;SDS011;1055;48.854;9.302;2023-08-21T08:18:49;15.93;;;10.83;;
2099;SDS011;1055;48.854;9.302;2023-08-21T08:21:15;15.37;;;12.20;;
2099;SDS011;1055;48.854;9.302;2023-08-21T08:23:41;13.70;;;11.47;;
2099;SDS011;1055;48.854;9.302;2023-08-21T08:26:07;13.90;;;11.60;;
2099;SDS011;1055;48.854;9.302;2023-08-21T08:28:34;21.00;;;11.73;;
2099;SDS011;1055;48.854;9.302;2023-08-21T08:31:00;16.77;;;12.37;;
2099;SDS011;1055;48.854;9.302;2023-08-21T08:33:26;15.33;;;11.10;;
2099;SDS011;1055;48.854;9.302;2023-08-21T08:35:51;15.13;;;12.40;;
2099;SDS011;1055;48.854;9.302;2023-08-21T08:38:17;13.50;;;12.10;;
2099;SDS011;1055;48.854;9.302;2023-08-21T08:40:44;14.50;;;12.47;;
2099;SDS011;1055;48.854;9.302;2023-08-21T08:43:11;16.77;;;12.53;;
2099;SDS011;1055;48.854;9.302;2023-08-21T08:45:37;13.43;;;12.00;;
2099;SDS011;1055;48.854;9.302;2023-08-21T08:51:28;13.33;;;11.20;;
2099;SDS011;1055;48.854;9.302;2023-08-21T08:53:57;15.37;;;11.70;;
2099;SDS011;1055;48.854;9.302;2023-08-21T08:56:24;13.10;;;10.60;;
2099;SDS011;1055;48.854;9.302;2023-08-21T08:58:49;13.23;;;11.77;;
2099;SDS011;1055;48.854;9.302;2023-08-21T09:01:15;14.57;;;11.43;;
2099;SDS011;1055;48.854;9.302;2023-08-21T09:03:41;13.80;;;11.70;;
2099;SDS011;1055;48.854;9.302;2023-08-21T09:06:07;16.00;;;11.90;;
2099;SDS011;1055;48.854;9.302;2023-08-21T09:08:33;13.73;;;10.70;;
2099;SDS011;1055;48.854;9.302;2023-08-21T09:11:03;18.23;;;11.97;;
2099;SDS011;1055;48.854;9.302;2023-08-21T09:13:28;13.87;;;11.77;;
2099;SDS011;1055;48.854;9.302;2023-08-21T09:15:56;12.87;;;11.47;;
2099;SDS011;1055;48.854;9.302;2023-08-21T09:18:23;12.67;;;11.37;;
2099;SDS011;1055;48.854;9.302;2023-08-21T09:20:49;15.67;;;11.60;;
2099;SDS011;1055;48.854;9.302;2023-08-21T09:23:15;12.83;;;10.60;;
2099;SDS011;1055;48.854;9.302;2023-08-21T09:25:43;13.10;;;10.90;;
2099;SDS011;1055;48.854;9.302;2023-08-21T09:28:12;13.00;;;11.70;;
2099;SDS011;1055;48.854;9.302;2023-08-21T09:33:12;13.30;;;11.20;;
2099;SDS011;1055;48.854;9.302;2023-08-21T09:35:39;12.90;;;11.50;;
2099;SDS011;1055;48.854;9.302;2023-08-21T09:38:07;12.83;;;11.43;;
2099;SDS011;1055;48.854;9.302;2023-08-21T09:40:33;17.03;;;12.23;;
2099;SDS011;1055;48.854;9.302;2023-08-21T09:42:59;13.90;;;10.83;;
2099;SDS011;1055;48.854;9.302;2023-08-21T09:45:29;14.03;;;12.00;;
2099;SDS011;1055;48.854;9.302;2023-08-21T09:47:55;13.17;;;11.10;;
2099;SDS011;1055;48.854;9.302;2023-08-21T09:50:23;12.60;;;10.37;;
2099;SDS011;1055;48.854;9.302;2023-08-21T09:52:50;12.90;;;10.80;;
2099;SDS011;1055;48.854;9.302;2023-08-21T09:55:16;14.07;;;10.70;;
2099;SDS011;1055;48.854;9.302;2023-08-21T09:57:43;12.37;;;10.03;;
2099;SDS011;1055;48.854;9.302;2023-08-21T10:00:10;12.00;;;9.60;;
2099;SDS011;1055;48.854;9.302;2023-08-21T10:02:54;12.60;;;11.30;;
2099;SDS011;1055;48.854;9.302;2023-08-21T10:05:25;15.00;;;10.40;;
2099;SDS011;1055;48.854;9.302;2023-08-21T10:07:51;12.00;;;10.13;;
2099;SDS011;1055;48.854;9.302;2023-08-21T10:10:19;12.23;;;10.23;;
2099;SDS011;1055;48.854;9.302;2023-08-21T10:12:44;10.90;;;9.70;;
2099;SDS011;1055;48.854;9.302;2023-08-21T10:15:10;11.10;;;9.27;;
2099;SDS011;1055;48.854;9.302;2023-08-21T10:17:36;14.03;;;9.77;;
2099;SDS011;1055;48.854;9.302;2023-08-21T10:20:06;12.07;;;9.80;;
2099;SDS011;1055;48.854;9.302;2023-08-21T10:25:58;15.93;;;10.67;;
2099;SDS011;1055;48.854;9.302;2023-08-21T10:33:58;12.53;;;9.80;;
2099;SDS011;1055;48.854;9.302;2023-08-21T10:39:07;15.37;;;9.73;;
2099;SDS011;1055;48.854;9.302;2023-08-21T10:42:09;13.93;;;9.53;;
2099;SDS011;1055;48.854;9.302;2023-08-21T10:49:58;12.77;;;9.60;;
2099;SDS011;1055;48.854;9.302;2023-08-21T10:52:27;12.63;;;9.20;;
2099;SDS011;1055;48.854;9.302;2023-08-21T10:54:59;12.60;;;9.73;;
2099;SDS011;1055;48.854;9.302;2023-08-21T10:57:28;13.73;;;10.70;;
2099;SDS011;1055;48.854;9.302;2023-08-21T10:59:59;11.77;;;9.20;;
2099;SDS011;1055;48.854;9.302;2023-08-21T11:02:26;14.40;;;10.57;;
2099;SDS011;1055;48.854;9.302;2023-08-21T11:04:56;10.93;;;9.43;;
2099;SDS011;1055;48.854;9.302;2023-08-21T11:07:22;10.97;;;9.50;;
2099;SDS011;1055;48.854;9.302;2023-08-21T11:09:49;14.67;;;9.00;;
2099;SDS011;1055;48.854;9.302;2023-08-21T11:12:15;10.50;;;8.60;;
2099;SDS011;1055;48.854;9.302;2023-08-21T11:14:43;9.63;;;8.43;;
2099;SDS011;1055;48.854;9.302;2023-08-21T11:17:09;12.53;;;9.30;;
2099;SDS011;1055;48.854;9.302;2023-08-21T11:19:35;12.90;;;8.57;;
2099;SDS011;1055;48.854;9.302;2023-08-21T11:22:02;11.30;;;9.10;;
2099;SDS011;1055;48.854;9.302;2023-08-21T11:24:45;11.87;;;9.37;;
2099;SDS011;1055;48.854;9.302;2023-08-21T11:27:17;9.67;;;8.10;;
2099;SDS011;1055;48.854;9.302;2023-08-21T11:32:13;12.07;;;9.17;;
2099;SDS011;1055;48.854;9.302;2023-08-21T11:34:56;12.93;;;8.87;;
2099;SDS011;1055;48.854;9.302;2023-08-21T11:37:24;11.50;;;9.30;;
2099;SDS011;1055;48.854;9.302;2023-08-21T11:39:51;13.40;;;9.40;;
2099;SDS011;1055;48.854;9.302;2023-08-21T11:42:19;11.70;;;9.23;;
2099;SDS011;1055;48.854;9.302;2023-08-21T11:44:52;12.43;;;9.13;;
2099;SDS011;1055;48.854;9.302;2023-08-21T11:47:19;10.43;;;8.33;;
2099;SDS011;1055;48.854;9.302;2023-08-21T11:49:46;13.60;;;9.50;;
2099;SDS011;1055;48.854;9.302;2023-08-21T11:52:14;10.97;;;8.40;;
2099;SDS011;1055;48.854;9.302;2023-08-21T11:54:43;10.10;;;8.80;;
2099;SDS011;1055;48.854;9.302;2023-08-21T11:57:12;11.00;;;9.50;;
2099;SDS011;1055;48.854;9.302;2023-08-21T11:59:39;13.40;;;10.30;;
2099;SDS011;1055;48.854;9.302;2023-08-21T12:02:16;12.27;;;10.27;;
2099;SDS011;1055;48.854;9.302;2023-08-21T12:04:43;10.47;;;8.70;;
2099;SDS011;1055;48.854;9.302;2023-08-21T12:07:09;11.00;;;9.00;;
2099;SDS011;1055;48.854;9.302;2023-08-21T12:09:35;12.47;;;9.30;;
2099;SDS011;1055;48.854;9.302;2023-08-21T12:12:04;11.43;;;9.43;;
2099;SDS011;1055;48.854;9.302;2023-08-21T12:14:30;10.67;;;9.10;;
2099;SDS011;1055;48.854;9.302;2023-08-21T12:16:56;12.43;;;9.50;;
2099;SDS011;1055;48.854;9.302;2023-08-21T12:19:22;11.83;;;9.23;;
2099;SDS011;1055;48.854;9.302;2023-08-21T12:21:48;10.53;;;9.30;;
2099;SDS011;1055;48.854;9.302;2023-08-21T12:24:15;10.97;;;9.80;;
2099;SDS011;1055;48.854;9.302;2023-08-21T12:26:41;10.13;;;8.67;;
2099;SDS011;1055;48.854;9.302;2023-08-21T12:29:06;14.00;;;9.67;;
2099;SDS011;1055;48.854;9.302;2023-08-21T12:31:32;12.30;;;9.43;;
2099;SDS011;1055;48.854;9.302;2023-08-21T12:33:57;12.67;;;8.27;;
2099;SDS011;1055;48.854;9.302;2023-08-21T12:36:24;11.70;;;9.30;;
2099;SDS011;1055;48.854;9.302;2023-08-21T12:38:50;9.97;;;8.97;;
2099;SDS011;1055;48.854;9.302;2023-08-21T12:41:15;10.00;;;8.67;;
2099;SDS011;1055;48.854;9.302;2023-08-21T12:43:44;11.17;;;8.80;;
2099;SDS011;1055;48.854;9.302;2023-08-21T12:46:10;12.67;;;9.07;;
2099;SDS011;1055;48.854;9.302;2023-08-21T12:48:35;13.07;;;9.80;;
2099;SDS011;1055;48.854;9.302;2023-08-21T12:51:01;12.33;;;9.13;;
2099;SDS011;1055;48.854;9.302;2023-08-21T12:53:27;11.33;;;9.27;;
2099;SDS011;1055;48.854;9.302;2023-08-21T12:55:53;15.93;;;9.13;;
2099;SDS011;1055;48.854;9.302;2023-08-21T12:58:19;12.90;;;9.13;;
2099;SDS011;1055;48.854;9.302;2023-08-21T13:00:45;11.53;;;8.67;;
2099;SDS011;1055;48.854;9.302;2023-08-21T13:03:10;10.17;;;8.57;;
2099;SDS011;1055;48.854;9.302;2023-08-21T13:05:37;14.00;;;8.93;;
2099;SDS011;1055;48.854;9.302;2023-08-21T13:08:03;11.53;;;9.00;;
2099;SDS011;1055;48.854;9.302;2023-08-21T13:10:28;9.80;;;8.07;;
2099;SDS011;1055;48.854;9.302;2023-08-21T13:12:54;12.00;;;9.10;;
2099;SDS011;1055;48.854;9.302;2023-08-21T13:15:19;14.00;;;9.10;;
2099;SDS011;1055;48.854;9.302;2023-08-21T13:17:45;9.60;;;8.50;;
2099;SDS011;1055;48.854;9.302;2023-08-21T13:20:11;11.50;;;8.43;;
2099;SDS011;1055;48.854;9.302;2023-08-21T13:22:55;13.77;;;8.90;;
2099;SDS011;1055;48.854;9.302;2023-08-21T13:25:22;15.10;;;9.27;;
2099;SDS011;1055;48.854;9.302;2023-08-21T13:27:52;12.50;;;9.10;;
2099;SDS011;1055;48.854;9.302;2023-08-21T13:30:18;13.87;;;8.97;;
2099;SDS011;1055;48.854;9.302;2023-08-21T13:32:45;9.50;;;8.17;;
2099;SDS011;1055;48.854;9.302;2023-08-21T13:35:11;10.90;;;9.07;;
2099;SDS011;1055;48.854;9.302;2023-08-21T13:37:38;11.30;;;8.00;;
2099;SDS011;1055;48.854;9.302;2023-08-21T13:40:04;11.23;;;8.60;;
2099;SDS011;1055;48.854;9.302;2023-08-21T13:42:35;9.80;;;8.50;;
2099;SDS011;1055;48.854;9.302;2023-08-21T13:45:03;9.30;;;8.30;;
2099;SDS011;1055;48.854;9.302;2023-08-21T13:47:29;10.43;;;9.10;;
2099;SDS011;1055;48.854;9.302;2023-08-21T13:49:55;10.20;;;8.13;;
2099;SDS011;1055;48.854;9.302;2023-08-21T13:52:21;11.20;;;8.03;;
2099;SDS011;1055;48.854;9.302;2023-08-21T13:54:47;13.03;;;8.33;;
2099;SDS011;1055;48.854;9.302;2023-08-21T13:57:13;11.70;;;8.30;;
2099;SDS011;1055;48.854;9.302;2023-08-21T13:59:39;10.93;;;8.47;;
2099;SDS011;1055;48.854;9.302;2023-08-21T14:02:05;12.93;;;8.90;;
2099;SDS011;1055;48.854;9.302;2023-08-21T14:04:32;9.53;;;7.73;;
2099;SDS011;1055;48.854;9.302;2023-08-21T14:06:58;9.67;;;8.10;;
2099;SDS011;1055;48.854;9.302;2023-08-21T14:09:23;12.40;;;8.73;;
2099;SDS011;1055;48.854;9.302;2023-08-21T14:11:49;10.97;;;8.17;;
2099;SDS011;1055;48.854;9.302;2023-08-21T14:14:15;12.30;;;8.13;;
2099;SDS011;1055;48.854;9.302;2023-08-21T14:16:42;11.20;;;7.87;;
2099;SDS011;1055;48.854;9.302;2023-08-21T14:19:08;11.40;;;8.90;;
2099;SDS011;1055;48.854;9.302;2023-08-21T14:21:35;14.30;;;8.50;;
2099;SDS011;1055;48.854;9.302;2023-08-21T14:24:02;10.03;;;7.93;;
2099;SDS011;1055;48.854;9.302;2023-08-21T14:26:28;11.53;;;7.80;;
2099;SDS011;1055;48.854;9.302;2023-08-21T14:28:54;12.47;;;8.40;;
2099;SDS011;1055;48.854;9.302;2023-08-21T14:31:20;12.07;;;7.70;;
2099;SDS011;1055;48.854;9.302;2023-08-21T14:33:46;10.93;;;8.60;;
2099;SDS011;1055;48.854;9.302;2023-08-21T14:36:12;13.77;;;9.50;;
2099;SDS011;1055;48.854;9.302;2023-08-21T14:38:37;10.23;;;7.50;;
2099;SDS011;1055;48.854;9.302;2023-08-21T14:41:03;14.17;;;8.27;;
2099;SDS011;1055;48.854;9.302;2023-08-21T14:43:28;13.40;;;9.03;;
2099;SDS011;1055;48.854;9.302;2023-08-21T14:45:57;11.23;;;7.70;;
2099;SDS011;1055;48.854;9.302;2023-08-21T14:48:23;12.67;;;8.33;;
2099;SDS011;1055;48.854;9.302;2023-08-21T14:50:49;10.83;;;7.53;;
2099;SDS011;1055;48.854;9.302;2023-08-21T14:53:14;10.03;;;7.90;;
2099;SDS011;1055;48.854;9.302;2023-08-21T14:55:40;9.97;;;8.10;;
2099;SDS011;1055;48.854;9.302;2023-08-21T14:58:06;8.70;;;7.30;;
2099;SDS011;1055;48.854;9.302;2023-08-21T15:03:43;9.87;;;6.97;;
2099;SDS011;1055;48.854;9.302;2023-08-21T15:06:10;10.70;;;7.70;;
2099;SDS011;1055;48.854;9.302;2023-08-21T15:08:38;8.10;;;7.00;;
2099;SDS011;1055;48.854;9.302;2023-08-21T15:11:05;8.40;;;7.40;;
2099;SDS011;1055;48.854;9.302;2023-08-21T15:13:31;8.13;;;7.17;;
2099;SDS011;1055;48.854;9.302;2023-08-21T15:15:57;10.20;;;7.03;;
2099;SDS011;1055;48.854;9.302;2023-08-21T15:18:22;8.80;;;7.50;;
2099;SDS011;1055;48.854;9.302;2023-08-21T15:20:48;10.00;;;7.30;;
2099;SDS011;1055;48.854;9.302;2023-08-21T15:23:16;12.20;;;7.47;;
2099;SDS011;1055;48.854;9.302;2023-08-21T15:25:42;13.80;;;7.30;;
2099;SDS011;1055;48.854;9.302;2023-08-21T15:28:08;10.70;;;7.30;;
2099;SDS011;1055;48.854;9.302;2023-08-21T15:30:34;10.73;;;8.03;;
2099;SDS011;1055;48.854;9.302;2023-08-21T15:32:59;12.00;;;7.53;;